createdAt,value
2022-09-03T00:00:55.709Z,5.00
2022-09-03T00:03:34.098Z,5.00
2022-09-03T00:06:12.641Z,4.40
2022-09-03T00:09:00.145Z,4.75
2022-09-03T00:11:48.280Z,4.88
2022-09-03T00:14:27.215Z,4.93
2022-09-03T00:17:00.964Z,4.60
2022-09-03T00:19:32.846Z,4.32
2022-09-03T00:22:07.321Z,4.07
2022-09-03T00:24:36.369Z,4.47
2022-09-03T00:27:06.806Z,4.50
2022-09-03T00:29:38.314Z,4.53
2022-09-03T00:32:13.488Z,4.30
2022-09-03T00:34:43.194Z,4.05
2022-09-03T00:37:14.296Z,4.18
2022-09-03T00:39:43.234Z,4.50
2022-09-03T00:42:24.848Z,3.92
2022-09-03T00:45:09.752Z,4.40
2022-09-03T00:47:36.393Z,4.18
2022-09-03T00:50:41.632Z,4.22
2022-09-03T00:53:28.651Z,4.13
2022-09-03T00:56:08.644Z,4.07
2022-09-03T00:59:06.971Z,4.65
2022-09-03T01:01:48.793Z,4.20
2022-09-03T01:04:50.382Z,4.57
2022-09-03T01:07:46.381Z,3.92
2022-09-03T01:10:48.361Z,4.93
2022-09-03T01:13:39.162Z,4.07
2022-09-03T01:16:28.462Z,4.57
2022-09-03T01:18:58.121Z,4.03
2022-09-03T01:21:52.267Z,3.83
2022-09-03T01:25:05.878Z,4.63
2022-09-03T01:27:58.649Z,4.15
2022-09-03T01:30:25.524Z,4.05
2022-09-03T01:33:10.514Z,4.63
2022-09-03T01:35:55.282Z,4.10
2022-09-03T01:38:40.223Z,4.68
2022-09-03T01:41:37.398Z,4.35
2022-09-03T01:44:10.894Z,3.60
2022-09-03T01:46:40.627Z,4.10
2022-09-03T01:49:29.079Z,3.60
2022-09-03T01:52:14.508Z,4.05
2022-09-03T01:54:51.067Z,3.25
2022-09-03T01:57:37.420Z,3.78
2022-09-03T02:00:11.925Z,2.78
2022-09-03T02:02:39.263Z,2.67
2022-09-03T02:05:10.752Z,2.47
2022-09-03T02:07:49.354Z,2.47
2022-09-03T02:10:19.640Z,2.80
2022-09-03T02:12:51.647Z,2.78
2022-09-03T02:15:22.233Z,3.67
2022-09-03T02:17:50.249Z,3.03
2022-09-03T02:20:20.427Z,3.00
2022-09-03T02:22:48.145Z,3.40
2022-09-03T02:25:19.131Z,2.83
2022-09-03T02:27:46.434Z,2.80
2022-09-03T02:30:13.180Z,3.13
2022-09-03T02:32:40.139Z,2.78
2022-09-03T02:35:07.373Z,3.33
2022-09-03T02:37:35.030Z,2.78
2022-09-03T02:40:02.324Z,3.45
2022-09-03T02:42:29.094Z,6.35
2022-09-03T02:44:59.529Z,3.25
2022-09-03T02:47:31.131Z,3.63
2022-09-03T02:49:57.813Z,3.53
2022-09-03T02:52:24.619Z,3.95
2022-09-03T02:54:51.411Z,4.55
2022-09-03T02:57:18.421Z,4.20
2022-09-03T02:59:54.227Z,3.50
2022-09-03T03:02:20.973Z,3.70
2022-09-03T03:04:47.686Z,3.55
2022-09-03T03:07:14.449Z,3.03
2022-09-03T03:09:41.132Z,4.80
2022-09-03T03:12:08.843Z,4.22
2022-09-03T03:14:35.762Z,4.75
2022-09-03T03:17:02.525Z,3.75
2022-09-03T03:19:29.282Z,3.90
2022-09-03T03:21:56.686Z,3.45
2022-09-03T03:24:23.413Z,3.20
2022-09-03T03:26:50.817Z,3.92
2022-09-03T03:29:20.776Z,3.40
2022-09-03T03:31:47.439Z,3.25
2022-09-03T03:34:14.140Z,4.15
2022-09-03T03:36:40.858Z,3.80
2022-09-03T03:39:07.580Z,3.60
2022-09-03T03:41:38.353Z,3.72
2022-09-03T03:44:08.678Z,4.05
2022-09-03T03:46:38.194Z,3.70
2022-09-03T03:49:06.838Z,3.70
2022-09-03T03:51:34.872Z,3.50
2022-09-03T03:54:05.013Z,3.30
2022-09-03T03:56:32.866Z,3.97
2022-09-03T03:58:59.927Z,4.38
2022-09-03T04:01:28.255Z,4.40
2022-09-03T04:03:56.637Z,4.05
2022-09-03T04:06:23.869Z,4.55
2022-09-03T04:08:51.017Z,3.83
2022-09-03T04:11:20.029Z,3.08
2022-09-03T04:16:16.099Z,3.17
2022-09-03T04:18:42.841Z,3.92
2022-09-03T04:21:11.940Z,3.70
2022-09-03T04:23:40.872Z,4.30
2022-09-03T04:28:35.326Z,4.55
2022-09-03T04:31:13.451Z,3.90
2022-09-03T04:33:40.475Z,3.95
2022-09-03T04:36:15.295Z,3.45
2022-09-03T04:38:43.224Z,4.63
2022-09-03T04:41:12.181Z,3.08
2022-09-03T04:46:09.087Z,4.13
2022-09-03T04:48:44.038Z,4.30
2022-09-03T04:51:14.886Z,4.35
2022-09-03T04:53:43.390Z,4.22
2022-09-03T04:56:21.093Z,4.18
2022-09-03T04:58:51.014Z,4.13
2022-09-03T05:01:22.255Z,3.83
2022-09-03T05:03:51.005Z,5.10
2022-09-03T05:06:17.875Z,4.20
2022-09-03T05:08:48.947Z,4.25
2022-09-03T05:11:17.747Z,3.92
2022-09-03T05:13:48.533Z,3.67
2022-09-03T05:16:16.128Z,4.15
2022-09-03T05:18:42.954Z,4.75
2022-09-03T05:21:11.994Z,4.03
2022-09-03T05:23:43.240Z,3.83
2022-09-03T05:26:12.441Z,6.53
2022-09-03T05:28:40.970Z,5.03
2022-09-03T05:31:09.970Z,4.28
2022-09-03T05:33:45.557Z,4.68
2022-09-03T05:36:14.326Z,5.50
2022-09-03T05:38:41.086Z,6.45
2022-09-03T05:41:09.506Z,5.78
2022-09-03T05:43:36.779Z,6.45
2022-09-03T05:46:11.631Z,6.57
2022-09-03T05:48:39.730Z,5.60
2022-09-03T05:51:09.115Z,6.53
2022-09-03T05:53:37.910Z,6.60
2022-09-03T05:56:07.563Z,6.88
2022-09-03T05:58:35.700Z,6.80
2022-09-03T06:01:17.390Z,7.68
2022-09-03T06:03:45.334Z,7.53
2022-09-03T06:06:16.102Z,7.38
2022-09-03T06:08:44.914Z,7.45
2022-09-03T06:11:11.894Z,7.93
2022-09-03T06:13:38.586Z,8.18
2022-09-03T06:16:06.702Z,7.78
2022-09-03T06:18:33.731Z,7.05
2022-09-03T06:21:02.746Z,6.75
2022-09-03T06:23:30.872Z,7.70
2022-09-03T06:26:08.673Z,7.43
2022-09-03T06:28:38.146Z,7.38
2022-09-03T06:31:06.556Z,7.53
2022-09-03T06:33:34.785Z,7.38
2022-09-03T06:36:05.610Z,7.60
2022-09-03T06:38:36.758Z,7.55
2022-09-03T06:41:05.955Z,9.00
2022-09-03T06:43:35.060Z,7.30
2022-09-03T06:46:06.534Z,8.15
2022-09-03T06:48:34.946Z,8.25
2022-09-03T06:51:10.041Z,7.72
2022-09-03T06:56:12.860Z,7.53
2022-09-03T07:03:43.222Z,7.30
2022-09-03T07:08:38.000Z,7.65
2022-09-03T07:11:09.493Z,7.18
2022-09-03T07:13:41.274Z,7.28
2022-09-03T07:16:10.504Z,7.95
2022-09-03T07:18:37.336Z,7.65
2022-09-03T07:21:09.550Z,8.07
2022-09-03T07:23:37.674Z,7.40
2022-09-03T07:26:10.120Z,7.72
2022-09-03T07:28:37.933Z,7.13
2022-09-03T07:31:06.310Z,7.57
2022-09-03T07:33:34.340Z,7.82
2022-09-03T07:36:08.740Z,7.72
2022-09-03T07:38:36.149Z,8.93
2022-09-03T07:41:06.242Z,8.65
2022-09-03T07:43:40.183Z,8.30
2022-09-03T07:46:08.560Z,8.52
2022-09-03T07:48:37.413Z,8.80
2022-09-03T07:51:04.330Z,8.63
2022-09-03T07:53:30.998Z,9.52
2022-09-03T07:56:08.640Z,9.48
2022-09-03T07:58:36.110Z,8.98
2022-09-03T08:01:09.003Z,8.23
2022-09-03T08:03:39.368Z,9.02
2022-09-03T08:06:07.861Z,9.48
2022-09-03T08:08:40.316Z,8.80
2022-09-03T08:11:15.360Z,8.95
2022-09-03T08:16:10.987Z,9.18
2022-09-03T08:18:39.234Z,8.68
2022-09-03T08:21:07.356Z,7.38
2022-09-03T08:23:38.262Z,7.95
2022-09-03T08:26:05.679Z,8.05
2022-09-03T08:28:34.384Z,7.35
2022-09-03T08:31:08.171Z,6.72
2022-09-03T08:33:37.697Z,6.85
2022-09-03T08:36:10.026Z,7.93
2022-09-03T08:38:38.009Z,7.13
2022-09-03T08:41:08.636Z,7.43
2022-09-03T08:43:51.051Z,7.45
2022-09-03T08:46:18.076Z,7.10
2022-09-03T08:48:46.661Z,6.78
2022-09-03T08:51:14.587Z,7.07
2022-09-03T08:53:51.009Z,6.40
2022-09-03T08:56:31.771Z,6.18
2022-09-03T08:58:58.715Z,5.80
2022-09-03T09:02:18.418Z,6.18
2022-09-03T09:05:00.753Z,6.15
2022-09-03T09:07:33.571Z,7.00
2022-09-03T09:10:29.596Z,6.43
2022-09-03T09:13:26.253Z,7.13
2022-09-03T09:16:12.924Z,5.60
2022-09-03T09:19:07.964Z,6.75
2022-09-03T09:21:41.380Z,5.97
2022-09-03T09:24:12.277Z,6.25
2022-09-03T09:26:40.756Z,7.55
2022-09-03T09:29:12.801Z,6.40
2022-09-03T09:31:40.630Z,6.65
2022-09-03T09:34:08.692Z,7.22
2022-09-03T09:37:03.465Z,6.32
2022-09-03T09:39:32.120Z,6.38
2022-09-03T09:42:08.368Z,6.47
2022-09-03T09:44:36.480Z,6.78
2022-09-03T09:47:06.873Z,5.57
2022-09-03T09:49:33.540Z,6.53
2022-09-03T09:52:14.858Z,5.95
2022-09-03T09:54:43.138Z,5.72
2022-09-03T09:57:23.928Z,5.35
2022-09-03T09:59:51.548Z,6.05
2022-09-03T10:02:28.798Z,5.53
2022-09-03T10:05:01.836Z,5.43
2022-09-03T10:07:33.094Z,5.65
2022-09-03T10:10:02.491Z,5.35
2022-09-03T10:12:35.759Z,5.15
2022-09-03T10:15:11.581Z,5.03
2022-09-03T10:18:03.030Z,4.45
2022-09-03T10:20:51.885Z,5.53
2022-09-03T10:23:22.548Z,6.13
2022-09-03T10:26:00.656Z,4.95
2022-09-03T10:28:29.513Z,4.10
2022-09-03T10:31:27.380Z,5.30
2022-09-03T10:34:34.228Z,4.75
2022-09-03T10:37:47.683Z,4.70
2022-09-03T10:40:38.650Z,4.78
2022-09-03T10:43:20.280Z,5.03
2022-09-03T10:46:00.211Z,4.50
2022-09-03T10:48:55.725Z,4.80
2022-09-03T10:51:26.966Z,5.43
2022-09-03T10:54:10.754Z,5.25
2022-09-03T10:57:15.120Z,4.43
2022-09-03T11:00:20.570Z,5.18
2022-09-03T11:03:12.756Z,4.43
2022-09-03T11:05:40.456Z,5.07
2022-09-03T11:08:17.677Z,4.40
2022-09-03T11:10:54.923Z,4.47
2022-09-03T11:13:28.310Z,4.18
2022-09-03T11:16:05.169Z,4.68
2022-09-03T11:18:44.797Z,4.03
2022-09-03T11:21:14.104Z,4.80
2022-09-03T11:23:43.502Z,4.60
2022-09-03T11:26:14.403Z,4.43
2022-09-03T11:28:56.507Z,6.22
2022-09-03T11:31:49.879Z,4.15
2022-09-03T11:34:31.658Z,3.95
2022-09-03T11:37:18.813Z,4.15
2022-09-03T11:39:53.910Z,4.50
2022-09-03T11:42:32.018Z,3.38
2022-09-03T11:45:24.963Z,3.92
2022-09-03T11:47:51.975Z,4.22
2022-09-03T11:50:25.950Z,4.78
2022-09-03T11:52:56.768Z,4.55
2022-09-03T11:55:43.463Z,4.35
2022-09-03T11:58:24.443Z,4.35
2022-09-03T12:00:53.361Z,4.38
2022-09-03T12:03:28.002Z,4.38
2022-09-03T12:06:13.591Z,4.40
2022-09-03T12:08:58.342Z,5.05
2022-09-03T12:11:51.821Z,4.95
2022-09-03T12:14:41.606Z,4.60
2022-09-03T12:17:08.262Z,4.28
2022-09-03T12:19:41.879Z,4.53
2022-09-03T12:22:19.342Z,4.55
2022-09-03T12:24:46.444Z,4.60
2022-09-03T12:27:21.397Z,4.45
2022-09-03T12:30:01.813Z,3.90
2022-09-03T12:32:37.251Z,4.47
2022-09-03T12:38:08.737Z,3.95
2022-09-03T12:41:23.444Z,4.28
2022-09-03T12:43:38.208Z,4.63
2022-09-03T12:46:13.899Z,4.20
2022-09-03T12:49:29.685Z,4.45
2022-09-03T12:51:53.485Z,4.35
2022-09-03T12:54:23.157Z,4.03
2022-09-03T12:56:55.364Z,3.92
2022-09-03T12:59:23.313Z,4.05
2022-09-03T13:01:57.299Z,4.45
2022-09-03T13:04:34.156Z,3.85
2022-09-03T13:07:04.353Z,4.00
2022-09-03T13:09:33.858Z,3.55
2022-09-03T13:12:04.827Z,4.30
2022-09-03T13:14:43.874Z,3.88
2022-09-03T13:17:17.425Z,4.28
2022-09-03T13:19:47.554Z,4.38
2022-09-03T13:22:38.945Z,4.38
2022-09-03T13:25:30.924Z,5.03
2022-09-03T13:28:27.752Z,4.97
2022-09-03T13:31:20.236Z,4.43
2022-09-03T13:33:55.009Z,4.22
2022-09-03T13:36:48.736Z,5.15
2022-09-03T13:39:26.991Z,4.43
2022-09-03T13:42:06.774Z,4.25
2022-09-03T13:45:06.246Z,4.57
2022-09-03T13:47:39.596Z,5.05
2022-09-03T13:50:24.156Z,4.75
2022-09-03T13:52:59.480Z,4.78
2022-09-03T13:55:48.759Z,4.70
2022-09-03T13:58:28.301Z,5.22
2022-09-03T14:01:04.956Z,4.88
2022-09-03T14:03:52.931Z,4.00
2022-09-03T14:06:55.478Z,5.00
2022-09-03T14:09:47.051Z,5.45
2022-09-03T14:12:19.762Z,4.40
2022-09-03T14:14:52.215Z,4.32
2022-09-03T14:17:48.116Z,4.03
2022-09-03T14:20:29.649Z,4.90
2022-09-03T14:23:17.942Z,4.50
2022-09-03T14:25:54.238Z,4.00
2022-09-03T14:28:30.372Z,3.63
2022-09-03T14:31:44.827Z,3.72
2022-09-03T14:34:34.473Z,3.90
2022-09-03T14:37:28.817Z,3.40
2022-09-03T14:40:00.419Z,3.75
2022-09-03T14:42:56.925Z,3.75
2022-09-03T14:45:38.195Z,5.07
2022-09-03T14:48:14.138Z,3.45
2022-09-03T14:51:02.438Z,2.70
2022-09-03T14:54:02.876Z,2.97
2022-09-03T14:57:12.643Z,3.63
2022-09-03T15:00:07.577Z,2.90
2022-09-03T15:02:37.110Z,2.95
2022-09-03T15:05:12.300Z,2.80
2022-09-03T15:07:41.693Z,3.10
2022-09-03T15:10:33.093Z,3.30
2022-09-03T15:13:07.223Z,3.28
2022-09-03T15:15:44.580Z,3.53
2022-09-03T15:18:38.494Z,3.45
2022-09-03T15:21:20.862Z,4.20
2022-09-03T15:23:56.780Z,5.05
2022-09-03T15:26:40.149Z,3.95
2022-09-03T15:29:27.399Z,4.10
2022-09-03T15:32:37.515Z,4.25
2022-09-03T15:35:33.667Z,4.07
2022-09-03T15:38:08.112Z,3.95
2022-09-03T15:40:48.237Z,4.20
2022-09-03T15:43:22.774Z,3.85
2022-09-03T15:45:49.537Z,4.28
2022-09-03T15:48:55.168Z,4.57
2022-09-03T15:51:31.070Z,5.53
2022-09-03T15:54:36.882Z,4.82
2022-09-03T15:59:43.557Z,5.15
2022-09-03T16:02:16.424Z,5.70
2022-09-03T16:04:55.154Z,6.18
2022-09-03T16:07:49.062Z,5.75
2022-09-03T16:10:25.993Z,5.55
2022-09-03T16:13:19.128Z,6.32
2022-09-03T16:15:50.218Z,5.07
2022-09-03T16:18:56.107Z,6.82
2022-09-03T16:24:25.945Z,6.30
2022-09-03T16:27:03.306Z,7.25
2022-09-03T16:29:31.287Z,6.07
2022-09-03T16:32:36.160Z,7.13
2022-09-03T16:35:06.278Z,6.05
2022-09-03T16:38:05.745Z,5.72
2022-09-03T16:40:54.567Z,7.97
2022-09-03T16:43:40.318Z,6.75
2022-09-03T16:46:26.062Z,8.13
2022-09-03T16:48:58.761Z,6.35
2022-09-03T16:51:46.698Z,7.10
2022-09-03T16:54:29.290Z,6.80
2022-09-03T16:57:20.305Z,6.22
2022-09-03T17:00:13.459Z,6.03
2022-09-03T17:03:26.386Z,6.45
2022-09-03T17:06:16.789Z,6.47
2022-09-03T17:09:17.567Z,5.55
2022-09-03T17:12:09.273Z,8.25
2022-09-03T17:14:51.041Z,6.93
2022-09-03T17:17:20.734Z,5.68
2022-09-03T17:19:53.417Z,6.95
2022-09-03T17:22:23.379Z,7.57
2022-09-03T17:25:05.932Z,7.10
2022-09-03T17:27:41.531Z,7.72
2022-09-03T17:30:10.768Z,5.78
2022-09-03T17:33:04.096Z,5.57
2022-09-03T17:36:15.235Z,6.43
2022-09-03T17:39:00.152Z,7.32
2022-09-03T17:41:41.250Z,5.97
2022-09-03T17:44:45.186Z,5.82
2022-09-03T17:47:33.286Z,5.65
2022-09-03T17:50:08.750Z,5.35
2022-09-03T17:52:35.397Z,6.82
2022-09-03T17:55:28.282Z,7.15
2022-09-03T17:58:01.743Z,7.03
2022-09-03T18:00:57.726Z,5.38
2022-09-03T18:03:28.567Z,6.88
2022-09-03T18:06:01.202Z,6.28
2022-09-03T18:08:49.210Z,5.53
2022-09-03T18:11:22.473Z,5.95
2022-09-03T18:13:53.141Z,6.10
2022-09-03T18:16:29.990Z,5.78
2022-09-03T18:19:18.360Z,5.93
2022-09-03T18:22:04.940Z,5.13
2022-09-03T18:25:03.809Z,5.53
2022-09-03T18:28:02.173Z,5.18
2022-09-03T18:30:47.928Z,4.88
2022-09-03T18:33:39.640Z,5.13
2022-09-03T18:36:25.241Z,6.05
2022-09-03T18:39:10.654Z,4.20
2022-09-03T18:42:20.460Z,5.20
2022-09-03T18:45:48.825Z,4.57
2022-09-03T18:48:39.756Z,4.75
2022-09-03T18:51:43.172Z,3.85
2022-09-03T18:55:07.440Z,4.43
2022-09-03T18:58:21.726Z,4.22
2022-09-03T19:01:21.910Z,4.63
2022-09-03T19:04:26.683Z,5.30
2022-09-03T19:07:27.195Z,5.10
2022-09-03T19:10:18.405Z,5.40
2022-09-03T19:13:06.207Z,4.72
2022-09-03T19:16:31.426Z,4.85
2022-09-03T19:19:22.401Z,5.60
2022-09-03T19:22:15.705Z,4.80
2022-09-03T19:25:01.170Z,5.13
2022-09-03T19:28:03.669Z,4.82
2022-09-03T19:30:53.828Z,4.78
2022-09-03T19:33:51.563Z,6.00
2022-09-03T19:36:52.056Z,5.15
2022-09-03T19:40:12.329Z,5.72
2022-09-03T19:43:03.563Z,5.65
2022-09-03T19:46:21.157Z,5.78
2022-09-03T19:49:40.418Z,5.57
2022-09-03T19:52:33.488Z,7.60
2022-09-03T19:55:21.031Z,5.28
2022-09-03T19:58:20.603Z,5.45
2022-09-03T20:01:15.105Z,6.07
2022-09-03T20:04:01.891Z,6.75
2022-09-03T20:06:49.001Z,5.88
2022-09-03T20:09:36.106Z,5.63
2022-09-03T20:12:07.345Z,6.15
2022-09-03T20:14:37.317Z,5.88
2022-09-03T20:17:10.843Z,5.88
2022-09-03T20:20:09.814Z,5.07
2022-09-03T20:23:09.741Z,5.80
2022-09-03T20:25:48.690Z,5.70
2022-09-03T20:28:33.825Z,6.05
2022-09-03T20:31:22.342Z,6.13
2022-09-03T20:34:09.323Z,5.75
2022-09-03T20:36:38.576Z,6.07
2022-09-03T20:39:47.380Z,5.28
2022-09-03T20:42:27.693Z,6.05
2022-09-03T20:45:12.472Z,5.05
2022-09-03T20:48:00.404Z,6.30
2022-09-03T20:50:36.903Z,8.85
2022-09-03T20:53:32.681Z,5.82
2022-09-03T20:56:17.027Z,5.35
2022-09-03T20:59:02.821Z,5.88
2022-09-03T21:01:51.014Z,6.45
2022-09-03T21:04:40.281Z,5.95
2022-09-03T21:07:40.984Z,5.47
2022-09-03T21:10:34.710Z,5.70
2022-09-03T21:13:16.122Z,5.78
2022-09-03T21:15:56.648Z,5.22
2022-09-03T21:18:29.757Z,5.50
2022-09-03T21:21:05.998Z,5.53
2022-09-03T21:23:46.322Z,4.97
2022-09-03T21:26:21.511Z,5.55
2022-09-03T21:31:29.546Z,4.50
2022-09-03T21:34:01.466Z,5.10
2022-09-03T21:36:35.354Z,5.47
2022-09-03T21:39:37.105Z,5.70
2022-09-03T21:42:11.068Z,5.05
2022-09-03T21:44:40.699Z,4.90
2022-09-03T21:47:16.211Z,4.40
2022-09-03T21:49:47.589Z,4.82
2022-09-03T21:52:19.072Z,4.10
2022-09-03T21:54:45.758Z,4.35
2022-09-03T21:57:18.894Z,5.38
2022-09-03T21:59:58.160Z,5.43
2022-09-03T22:02:27.552Z,4.85
2022-09-03T22:04:56.459Z,4.80
2022-09-03T22:08:00.403Z,4.53
2022-09-03T22:10:44.629Z,4.63
2022-09-03T22:13:14.760Z,4.10
2022-09-03T22:15:53.159Z,3.95
2022-09-03T22:18:29.482Z,3.78
2022-09-03T22:21:12.736Z,4.07
2022-09-03T22:24:23.363Z,4.55
2022-09-03T22:27:10.971Z,3.75
2022-09-03T22:29:53.440Z,3.28
2022-09-03T22:32:35.651Z,4.07
2022-09-03T22:35:11.318Z,3.50
2022-09-03T22:38:05.487Z,4.10
2022-09-03T22:40:38.185Z,3.72
2022-09-03T22:43:10.703Z,3.63
2022-09-03T22:45:47.579Z,3.45
2022-09-03T22:48:53.348Z,3.88
2022-09-03T22:51:21.910Z,3.97
2022-09-03T22:54:01.980Z,3.70
2022-09-03T22:56:32.489Z,3.85
2022-09-03T22:59:29.412Z,4.25
2022-09-03T23:02:06.669Z,4.13
2022-09-03T23:04:42.547Z,4.13
2022-09-03T23:07:33.244Z,5.05
2022-09-03T23:10:06.928Z,4.57
2022-09-03T23:12:39.543Z,4.50
2022-09-03T23:15:11.505Z,4.47
2022-09-03T23:17:46.461Z,4.07
2022-09-03T23:20:22.885Z,4.57
2022-09-03T23:23:29.790Z,4.65
2022-09-03T23:26:12.318Z,4.43
2022-09-03T23:28:43.521Z,4.32
2022-09-03T23:31:16.219Z,4.50
2022-09-03T23:33:42.938Z,4.30
2022-09-03T23:37:29.634Z,4.68
2022-09-03T23:39:46.734Z,4.30
2022-09-03T23:42:56.002Z,5.22
2022-09-03T23:45:46.931Z,4.82
2022-09-03T23:48:19.514Z,5.05
2022-09-03T23:50:52.896Z,5.88
2022-09-03T23:53:37.480Z,5.57
2022-09-03T23:56:31.493Z,5.55
2022-09-03T23:59:20.403Z,5.80
